La Posta (441, 1215, 629) Station Data

Red Flag Warning: No
Fire Weather Zone: 258
SDGE Region: Mountain Empire
Lat/Lon: 32.714/-116.404

Observations

Time Wind Speed/Gust Temp(F) RH Fuel Moist Fuel Temp(F) Dewpt(F) Tmax(F) Tmin(F) Accum Precip 10-min Precip SL Press(mb)
4/29 11:50pm 25 5 G 6 58° 13% - - 64.7° 49.6° - - -
4/29 11:40pm 32 6 G 7 57° 13% - - 64.7° 49.6° - - -
4/29 11:30pm 29 6 G 7 57° 13% - - 64.7° 49.6° - - -
4/29 11:20pm 28 7 G 8 58° 13% - - 64.7° 49.6° - - -
4/29 11:10pm 27 6 G 8 58° 13% - - 64.7° 49.6° - - -
4/29 11:00pm 30 5 G 7 58° 13% - - 64.7° 49.6° - - -
4/29 10:50pm 21 3 G 6 59° 13% - - 64.7° 49.6° - - -
4/29 10:40pm 6 4 G 6 59° 13% - - 64.7° 49.6° - - -
4/29 10:30pm 350 3 G 5 59° 13% - - 64.7° 49.6° - - -
4/29 10:20pm 345 2 G 4 59° 13% - - 64.7° 49.6° - - -
4/29 10:10pm 349 3 G 5 60° 12% - - 64.7° 49.6° - - -
4/29 10:00pm 359 2 G 3 60° 12% - - 64.7° 49.6° - - -
4/29 9:50pm 0 2 G 3 59° 13% - - 64.7° 49.6° - - -
4/29 9:40pm 9 3 G 4 59° 13% - - 64.7° 49.6° - - -
4/29 9:30pm 6 4 G 4 58° 14% - - 64.7° 49.6° - - -
4/29 9:20pm 335 4 G 5 58° 14% - - 64.7° 49.6° - - -
4/29 9:10pm 333 4 G 5 58° 14% - - 64.7° 49.6° - - -
4/29 9:00pm 335 4 G 6 58° 14% - - 64.7° 49.6° - - -
4/29 8:50pm 344 5 G 6 58° 14% - - 64.7° 49.6° - - -
4/29 8:40pm 347 5 G 6 59° 14% - - 64.7° 49.6° - - -
4/29 8:30pm 312 4 G 5 59° 14% - - 10° 64.7° 49.6° - - -
4/29 8:20pm 332 3 G 3 59° 14% - - 64.7° 49.6° - - -
4/29 8:10pm 16 2 G 4 59° 14% - - 64.7° 49.6° - - -
4/29 8:00pm 24 5 G 6 60° 14% - - 10° 64.7° 49.6° - - -
4/29 7:50pm 35 6 G 8 60° 13% - - 10° 64.7° 49.6° - - -
4/29 7:40pm 48 7 G 9 60° 14% - - 10° 64.7° 49.6° - - -
4/29 7:30pm 44 7 G 10 60° 14% - - 10° 64.7° 49.6° - - -
4/29 7:20pm 46 7 G 10 60° 14% - - 10° 64.7° 49.6° - - -
4/29 7:10pm 54 8 G 11 61° 13% - - 11° 64.7° 49.6° - - -
4/29 7:00pm 51 8 G 12 62° 13% - - 10° 64.7° 49.6° - - -
4/29 6:50pm 46 11 G 15 62° 13% - - 10° 64.7° 49.6° - - -
4/29 6:40pm 48 12 G 20 62° 12% - - 10° 64.7° 49.6° - - -
4/29 6:30pm 51 11 G 16 63° 13% - - 10° 64.7° 49.6° - - -
4/29 6:20pm 48 11 G 16 63° 12% - - 10° 64.7° 49.6° - - -
4/29 6:10pm 50 12 G 18 63° 12% - - 10° 64.7° 49.6° - - -
4/29 6:00pm 52 11 G 17 64° 12% - - 10° 64.7° 49.6° - - -
4/29 5:50pm 52 11 G 16 64° 12% - - 10° 64.7° 49.6° - - -
4/29 5:40pm 44 12 G 20 64° 12% - - 10° 64.7° 49.6° - - -
4/29 5:30pm 49 12 G 17 64° 12% - - 10° 64.7° 49.6° - - -
4/29 5:20pm 49 12 G 18 64° 12% - - 10° 64.7° 49.6° - - -
4/29 5:10pm 50 13 G 19 64° 12% - - 10° 64.7° 49.6° - - -
4/29 5:00pm 58 13 G 19 64° 12% - - 10° 64.7° 49.6° - - -
4/29 4:50pm 38 11 G 20 64° 12% - - 10° 64.7° 49.6° - - -
4/29 4:40pm 44 11 G 20 64° 12% - - 11° 64.7° 49.6° - - -
4/29 4:30pm 59 12 G 20 64° 12% - - 11° 64.5° 49.6° - - -
4/29 4:20pm 55 12 G 21 63° 12% - - 10° 64.5° 49.6° - - -
4/29 4:10pm 38 12 G 18 64° 12% - - 11° 64.5° 49.6° - - -
4/29 4:00pm 50 14 G 22 64° 12% - - 11° 64.5° 49.6° - - -
4/29 3:50pm 57 15 G 24 63° 12% - - 11° 64.3° 49.6° - - -
4/29 3:40pm 54 14 G 22 64° 13% - - 12° 64.3° 49.6° - - -
4/29 3:30pm 60 14 G 23 63° 13% - - 11° 64.1° 49.6° - - -
4/29 3:20pm 52 16 G 25 63° 12% - - 10° 63.6° 49.6° - - -
4/29 3:10pm 38 14 G 23 63° 13% - - 12° 63.6° 49.6° - - -
4/29 3:00pm 52 16 G 24 62° 14% - - 12° 63.2° 49.6° - - -
4/29 2:50pm 46 18 G 27 62° 13% - - 11° 63.1° 49.6° - - -
4/29 2:40pm 59 16 G 23 62° 14% - - 12° 63.1° 49.6° - - -
4/29 2:30pm 40 14 G 22 62° 14% - - 13° 62.7° 49.6° - - -
4/29 2:20pm 50 17 G 26 62° 14% - - 13° 62.7° 49.6° - - -
4/29 2:10pm 46 16 G 30 62° 15% - - 13° 62.5° 49.6° - - -
4/29 2:00pm 52 18 G 30 61° 15% - - 12° 61.3° 49.6° - - -
4/29 1:50pm 44 17 G 25 60° 15% - - 12° 61.3° 49.6° - - -
4/29 1:40pm 38 19 G 31 60° 15% - - 12° 61.3° 49.6° - - -
4/29 1:30pm 47 18 G 32 60° 14% - - 11° 61° 49.6° - - -
4/29 1:20pm 53 19 G 31 60° 15% - - 13° 60.9° 49.6° - - -
4/29 1:10pm 41 19 G 27 60° 15% - - 12° 60.7° 49.6° - - -
4/29 1:00pm 44 20 G 30 60° 15% - - 11° 60.7° 49.6° - - -
4/29 12:50pm 37 19 G 31 59° 15% - - 12° 60.2° 49.6° - - -
4/29 12:40pm 44 23 G 34 59° 15% - - 12° 59.7° 49.6° - - -
4/29 12:30pm 39 25 G 43 59° 16% - - 12° 59.6° 49.6° - - -
4/29 12:20pm 44 24 G 37 59° 16% - - 12° 59.6° 49.6° - - -
4/29 12:10pm 47 25 G 36 58° 16% - - 12° 58.9° 49.6° - - -
4/29 12:00pm 48 26 G 36 58° 16% - - 12° 58.5° 49.6° - - -
4/29 11:50am 46 22 G 34 58° 16% - - 12° 58.5° 49.6° - - -
4/29 11:40am 50 21 G 32 58° 17% - - 13° 58.5° 49.6° - - -
4/29 11:30am 41 21 G 32 57° 16% - - 11° 58.5° 49.6° - - -
4/29 11:20am 43 21 G 33 58° 15% - - 11° 58.4° 49.6° - - -
4/29 11:10am 45 21 G 34 58° 16% - - 11° 58.1° 49.6° - - -
4/29 11:00am 50 26 G 37 56° 16% - - 10° 57.4° 49.6° - - -
4/29 10:50am 51 25 G 35 57° 16% - - 11° 57.4° 49.6° - - -
4/29 10:40am 46 23 G 37 56° 15% - - 10° 57° 49.6° - - -
4/29 10:30am 50 21 G 32 56° 16% - - 10° 57° 49.6° - - -
4/29 10:20am 51 21 G 34 56° 16% - - 10° 56.8° 49.6° - - -
4/29 10:10am 46 22 G 32 56° 16% - - 10° 56.8° 49.6° - - -
4/29 10:00am 51 22 G 35 55° 16% - - 10° 56.8° 49.6° - - -
4/29 9:50am 52 22 G 31 55° 17% - - 11° 56.8° 49.6° - - -
4/29 9:40am 52 24 G 35 55° 17% - - 11° 56.8° 49.6° - - -
4/29 9:30am 45 23 G 33 55° 16% - - 10° 56.8° 49.6° - - -
4/29 9:20am 45 21 G 35 55° 17% - - 11° 56.8° 49.6° - - -
4/29 9:10am 51 26 G 37 54° 17% - - 11° 56.8° 49.6° - - -
4/29 9:00am 51 25 G 34 54° 17% - - 10° 56.8° 49.6° - - -
4/29 8:50am 55 25 G 36 54° 17% - - 10° 56.8° 49.6° - - -
4/29 8:40am 57 27 G 37 53° 17% - - 10° 56.8° 49.6° - - -
4/29 8:30am 58 26 G 38 53° 17% - - 56.8° 49.6° - - -
4/29 8:20am 58 26 G 41 53° 17% - - 56.8° 49.6° - - -
4/29 8:10am 55 25 G 36 53° 17% - - 56.8° 49.6° - - -
4/29 8:00am 60 27 G 38 52° 17% - - 56.8° 49.6° - - -
4/29 7:50am 54 25 G 37 52° 17% - - 56.8° 49.6° - - -
4/29 7:40am 57 25 G 38 52° 17% - - 56.8° 49.6° - - -
4/29 7:30am 57 26 G 35 51° 17% - - 56.8° 49.6° - - -
4/29 7:20am 55 25 G 37 51° 17% - - 56.8° 49.6° - - -
4/29 7:10am 58 25 G 35 51° 17% - - 56.8° 49.6° - - -
4/29 7:00am 49 22 G 32 51° 17% - - 56.8° 49.6° - - -
4/29 6:50am 45 22 G 34 51° 16% - - 56.8° 49.6° - - -
4/29 6:40am 44 20 G 32 50° 16% - - 56.8° 49.6° - - -
4/29 6:30am 45 21 G 30 50° 16% - - 56.8° 49.6° - - -
4/29 6:20am 40 21 G 37 50° 15% - - 56.8° 49.6° - - -
4/29 6:10am 44 20 G 34 50° 15% - - 56.8° 49.6° - - -
4/29 6:00am 50 20 G 29 50° 15% - - 56.8° 49.6° - - -
4/29 5:50am 45 23 G 34 50° 15% - - 56.8° 49.9° - - -
4/29 5:40am 45 21 G 35 50° 15% - - 56.8° 49.9° - - -
4/29 5:30am 49 23 G 37 50° 15% - - 56.8° 50° - - -
4/29 5:20am 52 24 G 37 51° 15% - - 56.8° 50.2° - - -
4/29 5:10am 55 25 G 36 51° 15% - - 56.8° 50.4° - - -
4/29 5:00am 52 24 G 37 51° 15% - - 56.8° 50.4° - - -
4/29 4:50am 51 22 G 31 51° 16% - - 56.8° 50.5° - - -
4/29 4:40am 50 19 G 30 51° 16% - - 56.8° 50.7° - - -
4/29 4:30am 49 21 G 34 51° 16% - - 56.8° 50.8° - - -
4/29 4:20am 51 24 G 35 51° 16% - - 56.8° 51.1° - - -
4/29 4:10am 53 24 G 35 52° 16% - - 56.8° 51.3° - - -
4/29 4:00am 56 23 G 33 52° 17% - - 56.8° 51.3° - - -
4/29 3:50am 61 23 G 35 52° 17% - - 56.8° 51.5° - - -
4/29 3:40am 55 21 G 32 52° 17% - - 56.8° 51.5° - - -
4/29 3:30am 61 22 G 35 52° 17% - - 56.8° 51.6° - - -
4/29 3:20am 63 24 G 39 52° 17% - - 56.8° 52.1° - - -
4/29 3:10am 63 25 G 34 53° 17% - - 56.8° 52.3° - - -
4/29 3:00am 63 25 G 37 53° 17% - - 56.8° 52.4° - - -
4/29 2:50am 65 26 G 38 53° 16% - - 56.8° 52.7° - - -
4/29 2:40am 67 25 G 37 53° 17% - - 56.8° 53° - - -
4/29 2:30am 67 23 G 36 53° 16% - - 56.8° 53.1° - - -
4/29 2:20am 67 24 G 38 54° 16% - - 56.8° 53.2° - - -
4/29 2:10am 68 24 G 38 54° 15% - - 56.8° 53.5° - - -
4/29 2:00am 70 23 G 35 54° 15% - - 56.8° 53.7° - - -
4/29 1:50am 67 25 G 35 54° 15% - - 56.8° 53.9° - - -
4/29 1:40am 67 24 G 40 55° 16% - - 56.8° 54.2° - - -
4/29 1:30am 63 23 G 36 55° 15% - - 56.8° 54.5° - - -
4/29 1:20am 61 24 G 33 56° 14% - - 56.8° 55.4° - - -
4/29 1:10am 62 23 G 31 56° 14% - - 56.8° 55.4° - - -
4/29 1:00am 59 22 G 31 56° 13% - - 56.8° 55.4° - - -
4/29 12:50am 60 23 G 36 56° 13% - - 56.8° 55.6° - - -
4/29 12:40am 59 21 G 32 56° 13% - - 56.8° 55.6° - - -
4/29 12:30am 60 21 G 31 56° 13% - - 56.8° 55.7° - - -
4/29 12:20am 62 21 G 30 56° 14% - - 56.8° 56.1° - - -
4/29 12:10am 64 21 G 28 56° 14% - - 56.7° 56.2° - - -
4/29 12:00am 63 19 G 26 56° 14% - - 69.6° 46.3° - - -
4/28 11:50pm 63 19 G 24 57° 14% - - 69.6° 46.3° - - -
4/28 11:40pm 61 20 G 30 57° 14% - - 69.6° 46.3° - - -
4/28 11:30pm 64 19 G 28 57° 15% - - 69.6° 46.3° - - -
4/28 11:20pm 65 19 G 28 57° 15% - - 10° 69.6° 46.3° - - -
4/28 11:10pm 66 15 G 23 57° 17% - - 12° 69.6° 46.3° - - -
4/28 11:00pm 64 15 G 22 56° 15% - - 69.6° 46.3° - - -
4/28 10:50pm 57 13 G 20 56° 15% - - 69.6° 46.3° - - -
4/28 10:40pm 57 13 G 20 56° 15% - - 69.6° 46.3° - - -
4/28 10:30pm 56 10 G 14 55° 17% - - 12° 69.6° 46.3° - - -
4/28 10:20pm 63 10 G 14 55° 19% - - 13° 69.6° 46.3° - - -
4/28 10:10pm 61 11 G 13 55° 20% - - 14° 69.6° 46.3° - - -
4/28 10:00pm 57 11 G 13 55° 21% - - 15° 69.6° 46.3° - - -
4/28 9:50pm 53 11 G 14 55° 22% - - 17° 69.6° 46.3° - - -
4/28 9:40pm 48 10 G 13 56° 23% - - 18° 69.6° 46.3° - - -
4/28 9:30pm 58 10 G 14 56° 25% - - 21° 69.6° 46.3° - - -
4/28 9:20pm 58 11 G 14 56° 26% - - 22° 69.6° 46.3° - - -
4/28 9:10pm 56 9 G 14 56° 37% - - 29° 69.6° 46.3° - - -
4/28 9:00pm 110 5 G 7 53° 56% - - 38° 69.6° 46.3° - - -
4/28 8:50pm 121 5 G 7 54° 57% - - 39° 69.6° 46.3° - - -
4/28 8:40pm 225 4 G 8 55° 52% - - 38° 69.6° 46.3° - - -
4/28 8:30pm 277 5 G 7 55° 52% - - 38° 69.6° 46.3° - - -
4/28 8:20pm 249 4 G 7 54° 53% - - 38° 69.6° 46.3° - - -
4/28 8:10pm 196 4 G 8 55° 54% - - 39° 69.6° 46.3° - - -
4/28 8:00pm 276 6 G 8 55° 53% - - 39° 69.6° 46.3° - - -
4/28 7:50pm 283 8 G 13 56° 53% - - 39° 69.6° 46.3° - - -
4/28 7:40pm 279 10 G 15 56° 53% - - 40° 69.6° 46.3° - - -
4/28 7:30pm 274 10 G 15 57° 54% - - 40° 69.6° 46.3° - - -
4/28 7:20pm 276 11 G 17 57° 53% - - 40° 69.6° 46.3° - - -
4/28 7:10pm 279 11 G 15 58° 52% - - 40° 69.6° 46.3° - - -
4/28 7:00pm 274 11 G 16 58° 51% - - 40° 69.6° 46.3° - - -
4/28 6:50pm 276 11 G 16 59° 50% - - 40° 69.6° 46.3° - - -
4/28 6:40pm 276 10 G 15 60° 49% - - 40° 69.6° 46.3° - - -
4/28 6:30pm 276 10 G 16 60° 48% - - 40° 69.6° 46.3° - - -
4/28 6:20pm 282 11 G 19 60° 48% - - 40° 69.6° 46.3° - - -
4/28 6:10pm 279 12 G 19 61° 47% - - 41° 69.6° 46.3° - - -
4/28 6:00pm 286 13 G 19 61° 47% - - 41° 69.6° 46.3° - - -